createdAt,value
2022-09-26T00:01:47.175Z,24.13
2022-09-26T00:06:51.326Z,21.98
2022-09-26T00:11:54.254Z,23.70
2022-09-26T00:16:56.891Z,22.23
2022-09-26T00:21:59.383Z,21.40
2022-09-26T00:27:01.692Z,22.33
2022-09-26T00:32:04.349Z,21.40
2022-09-26T00:37:06.905Z,23.40
2022-09-26T00:42:16.403Z,21.38
2022-09-26T00:47:33.930Z,24.05
2022-09-26T00:53:01.008Z,23.40
2022-09-26T00:58:09.171Z,20.88
2022-09-26T01:03:12.344Z,26.65
2022-09-26T01:08:18.132Z,22.38
2022-09-26T01:13:22.116Z,20.10
2022-09-26T01:18:24.575Z,23.67
2022-09-26T01:24:09.928Z,20.15
2022-09-26T01:29:52.468Z,20.92
2022-09-26T01:35:18.225Z,21.08
2022-09-26T01:40:27.840Z,20.45
2022-09-26T01:45:46.260Z,22.63
2022-09-26T01:51:02.477Z,22.88
2022-09-26T01:56:27.952Z,22.38
2022-09-26T02:01:35.585Z,19.27
2022-09-26T02:06:45.105Z,21.30
2022-09-26T02:11:49.915Z,19.45
2022-09-26T02:16:57.339Z,19.88
2022-09-26T02:22:01.656Z,18.70
2022-09-26T02:27:04.644Z,19.90
2022-09-26T02:32:17.653Z,21.67
2022-09-26T02:37:21.923Z,20.67
2022-09-26T02:42:36.784Z,19.90
2022-09-26T02:47:55.101Z,19.05
2022-09-26T02:53:20.355Z,23.05
2022-09-26T02:58:39.526Z,20.08
2022-09-26T03:04:02.497Z,19.48
2022-09-26T03:09:06.593Z,20.13
2022-09-26T03:14:11.216Z,18.75
2022-09-26T03:19:40.123Z,20.92
2022-09-26T03:24:43.371Z,23.45
2022-09-26T03:29:47.295Z,21.23
2022-09-26T03:34:57.406Z,21.33
2022-09-26T03:40:00.039Z,18.75
2022-09-26T03:45:22.683Z,19.67
2022-09-26T03:50:34.360Z,22.85
2022-09-26T03:55:36.813Z,21.33
2022-09-26T04:00:39.916Z,21.45
2022-09-26T04:05:43.591Z,20.40
2022-09-26T04:10:46.979Z,18.98
2022-09-26T04:15:56.180Z,20.40
2022-09-26T04:21:01.070Z,21.10
2022-09-26T04:26:05.495Z,19.83
2022-09-26T04:31:10.576Z,19.30
2022-09-26T04:36:17.828Z,18.83
2022-09-26T04:41:22.366Z,20.17
2022-09-26T04:46:30.612Z,19.85
2022-09-26T04:51:34.671Z,19.30
2022-09-26T04:56:40.094Z,19.25
2022-09-26T05:01:44.045Z,20.25
2022-09-26T05:06:51.629Z,18.60
2022-09-26T05:12:02.819Z,18.30
2022-09-26T05:17:06.992Z,19.35
2022-09-26T05:22:10.706Z,19.23
2022-09-26T05:27:14.326Z,23.42
2022-09-26T05:32:17.696Z,26.45
2022-09-26T05:37:21.729Z,20.67
2022-09-26T05:42:25.208Z,18.75
2022-09-26T05:47:32.259Z,22.65
2022-09-26T05:52:39.012Z,23.52
2022-09-26T05:57:54.221Z,27.50
2022-09-26T06:03:03.804Z,30.48
2022-09-26T06:08:39.131Z,31.00
2022-09-26T06:14:01.906Z,41.90
2022-09-26T06:19:04.482Z,33.47
2022-09-26T06:24:07.120Z,26.03
2022-09-26T06:29:11.525Z,30.42
2022-09-26T06:34:16.917Z,27.60
2022-09-26T06:39:40.266Z,25.65
2022-09-26T06:44:43.031Z,27.83
2022-09-26T06:50:05.706Z,29.27
2022-09-26T06:55:12.937Z,32.83
2022-09-26T07:00:16.723Z,26.17
2022-09-26T07:05:40.960Z,33.00
2022-09-26T07:10:43.521Z,32.05
2022-09-26T07:15:57.662Z,36.15
2022-09-26T07:21:29.412Z,33.58
2022-09-26T07:26:46.749Z,28.27
2022-09-26T07:31:49.259Z,33.72
2022-09-26T07:37:16.786Z,32.78
2022-09-26T07:42:21.228Z,30.88
2022-09-26T07:47:42.259Z,26.38
2022-09-26T07:53:04.498Z,33.25
2022-09-26T07:58:07.182Z,33.95
2022-09-26T08:03:29.672Z,34.03
2022-09-26T08:08:35.804Z,28.90
2022-09-26T08:13:38.227Z,30.02
2022-09-26T08:19:01.820Z,31.98
2022-09-26T08:24:04.841Z,24.77
2022-09-26T08:29:13.281Z,28.25
2022-09-26T08:34:19.272Z,31.15
2022-09-26T08:39:45.043Z,29.15
2022-09-26T08:46:04.732Z,20.25
2022-09-26T08:51:19.515Z,28.80
2022-09-26T08:56:30.633Z,26.52
2022-09-26T09:01:39.520Z,19.40
2022-09-26T09:07:01.928Z,27.75
2022-09-26T09:12:52.303Z,26.83
2022-09-26T09:18:35.807Z,15.48
2022-09-26T09:24:24.321Z,19.17
2022-09-26T09:29:41.833Z,15.20
2022-09-26T09:35:20.606Z,20.60
2022-09-26T09:40:52.229Z,15.73
2022-09-26T09:46:02.126Z,26.27
2022-09-26T09:51:23.013Z,19.95
2022-09-26T09:56:28.215Z,16.88
2022-09-26T10:01:41.386Z,16.98
2022-09-26T10:06:47.492Z,22.75
2022-09-26T10:11:55.778Z,17.48
2022-09-26T10:17:20.506Z,23.27
2022-09-26T10:22:45.123Z,21.80
2022-09-26T10:27:59.249Z,23.65
2022-09-26T10:33:05.020Z,18.25
2022-09-26T10:38:29.884Z,20.60
2022-09-26T10:43:56.048Z,23.05
2022-09-26T10:49:26.080Z,25.13
2022-09-26T10:55:09.821Z,19.42
2022-09-26T11:00:45.325Z,21.52
2022-09-26T11:05:56.577Z,24.08
2022-09-26T11:11:11.390Z,22.73
2022-09-26T11:16:21.085Z,6.60
2022-09-26T11:21:52.746Z,24.80
2022-09-26T11:27:33.530Z,24.65
2022-09-26T11:32:42.249Z,19.20
2022-09-26T11:38:41.057Z,23.58
2022-09-26T11:44:17.566Z,20.75
2022-09-26T11:49:44.444Z,21.98
2022-09-26T11:55:11.904Z,21.58
2022-09-26T12:00:26.553Z,20.92
2022-09-26T12:05:51.988Z,32.40
2022-09-26T12:11:15.446Z,18.85
2022-09-26T12:16:54.827Z,10.75
2022-09-26T12:22:30.108Z,20.10
2022-09-26T12:27:44.096Z,13.25
2022-09-26T12:32:58.561Z,18.50
2022-09-26T12:38:16.024Z,15.32
2022-09-26T12:43:49.227Z,18.90
2022-09-26T12:49:19.929Z,6.93
2022-09-26T12:54:44.453Z,16.50
2022-09-26T13:00:11.681Z,18.35
2022-09-26T13:05:46.359Z,9.45
2022-09-26T13:10:51.745Z,11.13
2022-09-26T13:16:27.940Z,8.55
2022-09-26T13:21:56.456Z,10.02
2022-09-26T13:27:16.294Z,5.97
2022-09-26T13:32:29.228Z,5.27
2022-09-26T13:37:44.353Z,11.40
2022-09-26T13:43:02.704Z,6.13
2022-09-26T13:48:16.779Z,11.70
2022-09-26T13:53:43.055Z,15.20
2022-09-26T13:58:45.407Z,13.67
2022-09-26T14:03:47.831Z,15.87
2022-09-26T14:09:25.785Z,12.30
2022-09-26T14:14:42.925Z,11.97
2022-09-26T14:19:52.952Z,14.93
2022-09-26T14:24:57.191Z,22.13
2022-09-26T14:30:01.274Z,17.85
2022-09-26T14:35:34.674Z,11.40
2022-09-26T14:40:38.100Z,13.30
2022-09-26T14:45:48.537Z,16.15
2022-09-26T14:50:57.485Z,14.45
2022-09-26T14:56:02.792Z,14.80
2022-09-26T15:01:14.034Z,13.05
2022-09-26T15:06:16.952Z,14.35
2022-09-26T15:11:36.750Z,13.38
2022-09-26T15:16:47.803Z,17.23
2022-09-26T15:22:04.862Z,14.50
2022-09-26T15:27:16.624Z,13.32
2022-09-26T15:32:26.591Z,13.18
2022-09-26T15:37:35.248Z,14.05
2022-09-26T15:42:56.471Z,12.43
2022-09-26T15:48:04.198Z,11.18
2022-09-26T15:53:18.295Z,12.98
2022-09-26T15:58:44.277Z,13.52
2022-09-26T16:04:03.582Z,12.27
2022-09-26T16:09:10.951Z,13.20
2022-09-26T16:14:27.399Z,13.02
2022-09-26T16:19:35.160Z,12.63
2022-09-26T16:24:38.011Z,12.50
2022-09-26T16:29:40.469Z,12.77
2022-09-26T16:34:43.036Z,11.40
2022-09-26T16:40:00.862Z,11.32
2022-09-26T16:45:05.592Z,12.23
2022-09-26T16:50:26.669Z,10.73
2022-09-26T16:55:33.313Z,11.75
2022-09-26T17:00:54.640Z,13.10
2022-09-26T17:05:58.870Z,10.45
2022-09-26T17:11:03.686Z,6.68
2022-09-26T17:16:07.564Z,9.38
2022-09-26T17:21:12.007Z,6.53
2022-09-26T17:26:23.988Z,6.97
2022-09-26T17:31:27.083Z,9.15
2022-09-26T17:36:29.973Z,8.57
2022-09-26T17:41:34.544Z,10.30
2022-09-26T17:46:38.453Z,11.05
2022-09-26T17:51:42.284Z,11.18
2022-09-26T17:56:45.026Z,11.63
2022-09-26T18:01:51.207Z,11.70
2022-09-26T18:06:56.463Z,13.68
2022-09-26T18:12:02.970Z,10.15
2022-09-26T18:17:06.146Z,22.08
2022-09-26T18:22:18.210Z,13.77
2022-09-26T18:27:21.073Z,11.53
2022-09-26T18:32:43.062Z,26.67
2022-09-26T18:37:46.162Z,99.37
2022-09-26T18:42:48.824Z,72.20
2022-09-26T18:47:51.435Z,21.73
2022-09-26T18:52:53.875Z,25.80
2022-09-26T18:58:14.957Z,28.45
2022-09-26T19:03:18.688Z,27.05
2022-09-26T19:08:35.346Z,25.33
2022-09-26T19:13:37.881Z,27.48
2022-09-26T19:18:41.230Z,27.63
2022-09-26T19:23:44.523Z,27.35
2022-09-26T19:28:46.982Z,25.15
2022-09-26T19:33:50.277Z,27.05
2022-09-26T19:38:52.732Z,29.38
2022-09-26T19:43:55.157Z,27.30
2022-09-26T19:48:58.027Z,21.35
2022-09-26T19:54:05.394Z,24.67
2022-09-26T19:59:10.704Z,21.27
2022-09-26T20:04:16.607Z,21.63
2022-09-26T20:09:20.997Z,23.95
2022-09-26T20:14:23.580Z,24.25
2022-09-26T20:19:41.635Z,20.15
2022-09-26T20:24:48.157Z,20.67
2022-09-26T20:30:09.609Z,20.58
2022-09-26T20:35:15.700Z,19.08
2022-09-26T20:40:22.729Z,18.38
2022-09-26T20:45:40.854Z,20.98
2022-09-26T20:50:43.710Z,19.63
2022-09-26T20:55:50.017Z,24.73
2022-09-26T21:00:53.289Z,18.23
2022-09-26T21:05:55.704Z,20.10
2022-09-26T21:11:01.080Z,17.60
2022-09-26T21:16:03.602Z,17.83
2022-09-26T21:21:11.269Z,19.40
2022-09-26T21:26:51.857Z,16.42
2022-09-26T21:31:58.535Z,21.20
2022-09-26T21:37:03.756Z,21.20
2022-09-26T21:42:07.494Z,17.10
2022-09-26T21:47:10.261Z,17.60
2022-09-26T21:52:19.184Z,17.17
2022-09-26T21:57:29.202Z,19.40
2022-09-26T22:02:31.752Z,15.40
2022-09-26T22:07:34.324Z,17.92
2022-09-26T22:12:37.413Z,16.70
2022-09-26T22:17:39.817Z,15.63
2022-09-26T22:22:42.860Z,16.02
2022-09-26T22:27:45.344Z,13.55
2022-09-26T22:32:47.731Z,16.30
2022-09-26T22:37:50.631Z,16.00
2022-09-26T22:42:53.061Z,16.58
2022-09-26T22:47:56.470Z,15.50
2022-09-26T22:52:59.287Z,13.98
2022-09-26T22:58:01.958Z,13.25
2022-09-26T23:03:04.485Z,14.20
2022-09-26T23:08:07.069Z,15.82
2022-09-26T23:13:09.479Z,13.88
2022-09-26T23:18:13.259Z,16.10
2022-09-26T23:23:15.787Z,12.52
2022-09-26T23:28:18.235Z,13.95
2022-09-26T23:33:20.647Z,14.80
2022-09-26T23:38:23.121Z,13.65
2022-09-26T23:43:25.626Z,15.15
2022-09-26T23:48:28.275Z,13.15
2022-09-26T23:53:31.217Z,14.05
2022-09-26T23:58:33.661Z,14.32
